Time;durP1;ratioP1;P1;durP2;ratioP2;P2;SDS_P1;SDS_P2;PMS_P1;PMS_P2;Temp;Humidity;BMP_temperature;BMP_pressure;BME280_temperature;BME280_humidity;BME280_pressure;Samples;Min_cycle;Max_cycle;Signal;HPM_P1;HPM_P2
2022/08/28 00:01:04;;;;;;;11.45;2.85;;;12.20;99.90;;;;;;4989147;28;20045;-78
2022/08/28 00:03:31;;;;;;;7.85;2.92;;;12.20;99.90;;;;;;4984147;28;20040;-79
2022/08/28 00:05:58;;;;;;;7.70;2.75;;;12.20;99.90;;;;;;5014055;28;20059;-79
2022/08/28 00:08:25;;;;;;;7.13;2.88;;;12.20;99.90;;;;;;4987354;28;20039;-77
2022/08/28 00:10:51;;;;;;;11.18;2.65;;;12.30;99.90;;;;;;4984258;28;20031;-79
2022/08/28 00:13:20;;;;;;;8.80;3.47;;;12.30;99.90;;;;;;5014339;28;20050;-77
2022/08/28 00:15:49;;;;;;;8.15;2.75;;;12.30;99.90;;;;;;4985121;28;20081;-77
2022/08/28 00:18:15;;;;;;;6.03;2.53;;;12.20;99.90;;;;;;5016139;28;20046;-77
2022/08/28 00:20:42;;;;;;;6.57;2.35;;;12.20;99.90;;;;;;5020554;28;20051;-76
2022/08/28 00:23:07;;;;;;;7.25;2.70;;;12.30;99.90;;;;;;4992894;28;20043;-79
2022/08/28 00:25:34;;;;;;;9.30;3.25;;;12.30;99.90;;;;;;4983799;28;20724;-79
2022/08/28 00:28:03;;;;;;;4.82;2.78;;;12.30;99.90;;;;;;5016546;28;20518;-78
2022/08/28 00:30:30;;;;;;;8.23;2.83;;;12.20;99.90;;;;;;4986841;28;20141;-79
2022/08/28 00:32:59;;;;;;;10.25;3.50;;;12.30;99.90;;;;;;4992899;28;20046;-79
2022/08/28 00:35:26;;;;;;;7.72;2.95;;;12.20;99.90;;;;;;4988844;28;20720;-78
2022/08/28 00:37:53;;;;;;;6.43;2.28;;;12.20;99.90;;;;;;5017263;28;20034;-78
2022/08/28 00:40:20;;;;;;;7.97;3.05;;;12.20;99.90;;;;;;4984553;28;20051;-79
2022/08/28 00:42:47;;;;;;;8.00;2.88;;;12.20;99.90;;;;;;4985726;28;20042;-78
2022/08/28 00:45:18;;;;;;;7.57;2.53;;;12.30;99.90;;;;;;4988860;28;20057;-79
2022/08/28 00:47:44;;;;;;;8.20;2.80;;;12.30;99.90;;;;;;5018968;28;20116;-78
2022/08/28 00:50:16;;;;;;;7.68;2.85;;;12.30;99.90;;;;;;4985389;28;20053;-79
2022/08/28 00:52:47;;;;;;;11.40;3.70;;;12.30;99.90;;;;;;4989913;28;20042;-77
2022/08/28 00:55:19;;;;;;;6.53;2.88;;;12.30;99.90;;;;;;4988073;28;20715;-79
2022/08/28 00:57:58;;;;;;;7.13;2.90;;;12.40;99.90;;;;;;4989409;28;20038;-79
2022/08/28 01:00:36;;;;;;;5.22;2.80;;;12.30;99.90;;;;;;4982164;28;20128;-76
2022/08/28 01:03:03;;;;;;;5.60;3.10;;;12.40;99.90;;;;;;5018850;28;20137;-79
2022/08/28 01:05:29;;;;;;;10.02;3.47;;;12.40;99.90;;;;;;4987218;28;20044;-79
2022/08/28 01:07:57;;;;;;;5.32;2.72;;;12.40;99.90;;;;;;5004024;28;20050;-79
2022/08/28 01:10:26;;;;;;;4.53;2.58;;;12.40;99.90;;;;;;4993777;28;20046;-79
2022/08/28 01:12:55;;;;;;;10.27;2.80;;;12.50;99.90;;;;;;4985561;28;20050;-79
2022/08/28 01:15:25;;;;;;;8.23;2.65;;;12.50;99.90;;;;;;5017942;28;20034;-79
2022/08/28 01:17:56;;;;;;;10.10;2.97;;;12.50;99.90;;;;;;4986401;28;20034;-79
2022/08/28 01:20:27;;;;;;;4.95;2.70;;;12.50;99.90;;;;;;4992414;28;20069;-79
2022/08/28 01:23:19;;;;;;;10.63;3.00;;;12.50;99.90;;;;;;5000566;28;20042;-76
2022/08/28 01:25:44;;;;;;;8.15;2.60;;;12.50;99.90;;;;;;4987141;28;20050;-78
2022/08/28 01:28:12;;;;;;;8.73;3.35;;;12.50;99.90;;;;;;4986739;28;20459;-77
2022/08/28 01:30:44;;;;;;;7.55;2.50;;;12.50;99.90;;;;;;4983398;28;20136;-77
2022/08/28 01:33:13;;;;;;;9.23;2.63;;;12.50;99.90;;;;;;4990432;28;20358;-78
2022/08/28 01:35:43;;;;;;;12.60;3.17;;;12.50;99.90;;;;;;5015943;28;20042;-78
2022/08/28 01:38:09;;;;;;;6.35;2.30;;;12.50;99.90;;;;;;4989800;28;20076;-77
2022/08/28 01:40:38;;;;;;;7.53;2.70;;;12.50;99.90;;;;;;4985512;28;20042;-78
2022/08/28 01:43:13;;;;;;;11.00;3.25;;;12.60;99.90;;;;;;5001586;28;20046;-79
2022/08/28 01:45:40;;;;;;;10.90;3.17;;;12.60;99.90;;;;;;4991248;28;20446;-78
2022/08/28 01:48:07;;;;;;;8.65;2.85;;;12.60;99.90;;;;;;4987676;28;20077;-79
2022/08/28 01:50:33;;;;;;;7.13;2.55;;;12.60;99.90;;;;;;5018597;28;20054;-77
2022/08/28 01:52:59;;;;;;;13.88;3.80;;;12.60;99.90;;;;;;4987222;28;20128;-79
2022/08/28 01:55:25;;;;;;;7.63;3.67;;;12.60;99.90;;;;;;4985688;28;20591;-79
2022/08/28 01:57:53;;;;;;;9.73;2.97;;;12.60;99.90;;;;;;4985140;28;20129;-78
2022/08/28 02:00:19;;;;;;;8.57;2.95;;;12.60;99.90;;;;;;4988576;28;20498;-79
2022/08/28 02:02:47;;;;;;;5.93;2.25;;;12.60;99.90;;;;;;4986211;28;20042;-78
2022/08/28 02:05:13;;;;;;;5.78;2.20;;;12.50;99.90;;;;;;4990325;28;20082;-79
2022/08/28 02:07:38;;;;;;;9.77;2.75;;;12.50;99.90;;;;;;5002607;28;20050;-76
2022/08/28 02:10:06;;;;;;;8.07;2.38;;;12.50;99.90;;;;;;4986248;28;20058;-78
2022/08/28 02:12:32;;;;;;;8.93;1.92;;;12.40;99.90;;;;;;4986296;28;20046;-76
2022/08/28 02:14:57;;;;;;;7.90;2.17;;;12.40;99.90;;;;;;4986501;28;20058;-79
2022/08/28 02:17:23;;;;;;;8.55;2.03;;;12.40;99.90;;;;;;4984188;28;20038;-79
2022/08/28 02:19:49;;;;;;;8.95;2.40;;;12.30;99.90;;;;;;4990010;28;20047;-79
2022/08/28 02:22:14;;;;;;;9.80;2.70;;;12.30;99.90;;;;;;5014739;28;20054;-78
2022/08/28 02:24:40;;;;;;;10.63;2.80;;;12.40;99.90;;;;;;4984790;28;20644;-77
2022/08/28 02:27:06;;;;;;;7.00;2.38;;;12.30;99.90;;;;;;4983623;28;20129;-78
2022/08/28 02:29:31;;;;;;;8.07;3.28;;;12.30;99.90;;;;;;5011845;28;20046;-79
2022/08/28 02:31:57;;;;;;;11.15;3.25;;;12.40;99.90;;;;;;5011829;28;20047;-78
2022/08/28 02:34:23;;;;;;;6.70;2.17;;;12.40;99.90;;;;;;4984305;28;20110;-78
2022/08/28 02:36:49;;;;;;;7.70;2.80;;;12.40;99.90;;;;;;5014997;28;20109;-77
2022/08/28 02:39:15;;;;;;;8.57;2.75;;;12.30;99.90;;;;;;4981107;28;21834;-78
2022/08/28 02:41:40;;;;;;;6.07;2.45;;;12.30;99.90;;;;;;5003355;28;20177;-79
2022/08/28 02:44:06;;;;;;;8.13;2.60;;;12.30;99.90;;;;;;5016379;28;20046;-79
2022/08/28 02:46:32;;;;;;;6.32;2.55;;;12.30;99.90;;;;;;5012251;28;20419;-79
2022/08/28 02:48:58;;;;;;;8.40;2.78;;;12.30;99.90;;;;;;4990059;28;20093;-76
2022/08/28 02:51:24;;;;;;;7.97;2.97;;;12.30;99.90;;;;;;4988221;28;20058;-78
2022/08/28 02:53:51;;;;;;;5.63;2.53;;;12.30;99.90;;;;;;4985352;28;20095;-80
2022/08/28 02:56:17;;;;;;;6.13;2.90;;;12.30;99.90;;;;;;4980736;28;20046;-77
2022/08/28 02:58:42;;;;;;;11.25;2.95;;;12.30;99.90;;;;;;4984256;28;20065;-79
2022/08/28 03:01:12;;;;;;;6.07;2.45;;;12.30;99.90;;;;;;4988637;28;20058;-78
2022/08/28 03:03:39;;;;;;;5.82;2.47;;;12.30;99.90;;;;;;4984285;28;20050;-79
2022/08/28 03:06:06;;;;;;;5.72;2.33;;;12.30;99.90;;;;;;4980065;28;20046;-78
2022/08/28 03:08:32;;;;;;;9.18;2.47;;;12.20;99.90;;;;;;4983556;28;20050;-77
2022/08/28 03:10:58;;;;;;;7.07;2.83;;;12.20;99.90;;;;;;4998018;28;20629;-79
2022/08/28 03:13:24;;;;;;;6.53;2.83;;;12.30;99.90;;;;;;5014945;28;20133;-79
2022/08/28 03:15:50;;;;;;;6.90;2.60;;;12.20;99.90;;;;;;4975063;28;20443;-79
2022/08/28 03:18:17;;;;;;;11.15;3.30;;;12.20;99.90;;;;;;4982968;28;20049;-76
2022/08/28 03:20:44;;;;;;;9.77;2.78;;;12.20;99.90;;;;;;4983777;28;20089;-79
2022/08/28 03:23:25;;;;;;;8.30;3.30;;;12.30;99.90;;;;;;4998979;28;20483;-79
2022/08/28 03:25:55;;;;;;;5.38;2.25;;;12.20;99.90;;;;;;4986715;28;20049;-79
2022/08/28 03:28:22;;;;;;;5.28;2.53;;;12.20;99.90;;;;;;5008230;28;20066;-77
2022/08/28 03:30:49;;;;;;;6.82;3.05;;;12.20;99.90;;;;;;5013601;28;20062;-79
2022/08/28 03:33:15;;;;;;;7.25;2.25;;;12.10;99.90;;;;;;5012022;28;20046;-79
2022/08/28 03:35:40;;;;;;;6.53;2.40;;;12.00;99.90;;;;;;5014572;28;21656;-79
2022/08/28 03:38:06;;;;;;;4.53;2.65;;;11.90;99.90;;;;;;4983945;28;20046;-79
2022/08/28 03:40:31;;;;;;;11.85;2.78;;;11.80;99.90;;;;;;5001449;28;20051;-76
2022/08/28 03:42:57;;;;;;;6.88;2.90;;;11.70;99.90;;;;;;4984615;28;20042;-79
2022/08/28 03:45:23;;;;;;;5.25;2.30;;;11.60;99.90;;;;;;5016534;28;20042;-79
2022/08/28 03:47:49;;;;;;;8.65;2.50;;;11.50;99.90;;;;;;4984992;28;20039;-79
2022/08/28 03:50:16;;;;;;;9.50;2.75;;;11.40;99.90;;;;;;4984570;28;20256;-77
2022/08/28 03:52:42;;;;;;;7.55;2.22;;;11.40;99.90;;;;;;4987617;28;20058;-77
2022/08/28 03:55:10;;;;;;;4.90;2.30;;;11.40;99.90;;;;;;4986852;28;20030;-79
2022/08/28 03:57:37;;;;;;;6.10;2.30;;;11.40;99.90;;;;;;4985763;28;20052;-78
2022/08/28 04:00:05;;;;;;;6.55;2.33;;;11.40;99.90;;;;;;4984877;28;20046;-79
2022/08/28 04:02:31;;;;;;;4.85;2.30;;;11.40;99.90;;;;;;4985851;28;20056;-77
2022/08/28 04:04:56;;;;;;;8.57;2.45;;;11.40;99.90;;;;;;4986227;28;20106;-78
2022/08/28 04:07:22;;;;;;;5.40;2.50;;;11.40;99.90;;;;;;4984910;28;20523;-78
2022/08/28 04:09:48;;;;;;;5.25;2.10;;;11.40;99.90;;;;;;5010783;28;20085;-78
2022/08/28 04:12:14;;;;;;;4.68;2.08;;;11.40;99.90;;;;;;4984865;28;20038;-79
2022/08/28 04:14:39;;;;;;;7.28;2.60;;;11.40;99.90;;;;;;4985638;28;20113;-79
2022/08/28 04:17:06;;;;;;;4.43;1.90;;;11.40;99.90;;;;;;4984719;28;20062;-78
2022/08/28 04:19:32;;;;;;;3.38;1.88;;;11.30;99.90;;;;;;4983696;28;20074;-78
2022/08/28 04:21:58;;;;;;;7.30;1.90;;;11.20;99.90;;;;;;4986271;28;20046;-79
2022/08/28 04:24:24;;;;;;;5.05;2.15;;;11.20;99.90;;;;;;4985882;28;20049;-79
2022/08/28 04:26:49;;;;;;;5.82;2.30;;;11.10;99.90;;;;;;4981410;28;20043;-78
2022/08/28 04:29:15;;;;;;;3.75;2.10;;;11.10;99.90;;;;;;4981691;28;20046;-79
2022/08/28 04:31:41;;;;;;;8.35;2.42;;;11.10;99.90;;;;;;4984836;28;20066;-79
2022/08/28 04:34:08;;;;;;;4.03;1.80;;;11.10;99.90;;;;;;4984452;28;20050;-78
2022/08/28 04:36:34;;;;;;;6.35;1.95;;;11.00;99.90;;;;;;4984026;28;20074;-79
2022/08/28 04:39:00;;;;;;;5.35;2.22;;;11.10;99.90;;;;;;4977995;28;20089;-77
2022/08/28 04:41:27;;;;;;;4.47;1.90;;;11.00;99.90;;;;;;4995722;28;20054;-75
2022/08/28 04:43:56;;;;;;;3.97;1.67;;;11.00;99.90;;;;;;4981116;28;20101;-79
2022/08/28 04:46:22;;;;;;;6.32;2.15;;;10.90;99.90;;;;;;4982331;28;20503;-79
2022/08/28 04:48:48;;;;;;;7.22;2.25;;;10.90;99.90;;;;;;4978696;28;20050;-78
2022/08/28 04:51:14;;;;;;;8.30;3.25;;;11.00;99.90;;;;;;4980205;28;20038;-79
2022/08/28 04:53:40;;;;;;;7.85;3.03;;;11.10;99.90;;;;;;5010170;28;20067;-79
2022/08/28 04:56:09;;;;;;;4.28;2.05;;;11.10;99.90;;;;;;4980954;28;20125;-78
2022/08/28 04:58:36;;;;;;;5.40;2.88;;;11.30;99.90;;;;;;5010497;28;20038;-78
2022/08/28 05:01:17;;;;;;;8.57;2.50;;;11.40;99.90;;;;;;4979811;28;20034;-77
2022/08/28 05:03:44;;;;;;;7.75;3.03;;;11.40;99.90;;;;;;4983337;28;20043;-78
2022/08/28 05:06:12;;;;;;;10.20;2.53;;;11.50;99.90;;;;;;4986042;28;20161;-79
2022/08/28 05:08:38;;;;;;;4.55;1.75;;;11.50;99.90;;;;;;4985411;28;20042;-79
2022/08/28 05:11:20;;;;;;;6.25;2.10;;;11.60;99.90;;;;;;5014616;28;20093;-78
2022/08/28 05:13:46;;;;;;;7.47;2.95;;;11.70;99.90;;;;;;5014455;28;20049;-79
2022/08/28 05:16:11;;;;;;;5.15;1.83;;;11.80;99.90;;;;;;4985415;28;20038;-77
2022/08/28 05:18:37;;;;;;;4.22;1.90;;;12.20;99.90;;;;;;4983997;28;20114;-78
2022/08/28 05:21:03;;;;;;;8.02;1.60;;;12.70;99.90;;;;;;4985737;28;20038;-79
2022/08/28 05:23:29;;;;;;;4.22;1.67;;;13.60;99.90;;;;;;4982408;28;20042;-79
2022/08/28 05:25:55;;;;;;;7.85;1.60;;;14.50;99.90;;;;;;4982675;28;20104;-79
2022/08/28 05:28:23;;;;;;;5.15;1.92;;;15.50;99.90;;;;;;4992188;28;20092;-79
2022/08/28 05:30:49;;;;;;;6.55;1.50;;;16.50;99.90;;;;;;5002093;28;20070;-79
2022/08/28 05:33:15;;;;;;;2.38;1.08;;;16.70;99.90;;;;;;4984832;28;20181;-79
2022/08/28 05:35:42;;;;;;;7.18;1.90;;;16.30;99.90;;;;;;5016862;28;20462;-78
2022/08/28 05:38:09;;;;;;;7.55;1.80;;;15.80;99.90;;;;;;4988640;28;20514;-79
2022/08/28 05:40:48;;;;;;;8.82;2.65;;;15.80;99.90;;;;;;5014792;28;20051;-79
2022/08/28 05:43:16;;;;;;;8.45;1.77;;;16.40;99.90;;;;;;4981417;28;20042;-79
2022/08/28 05:45:42;;;;;;;5.55;1.92;;;17.50;99.90;;;;;;4989831;28;20093;-79
2022/08/28 05:48:08;;;;;;;7.70;2.35;;;18.60;99.90;;;;;;4982164;28;20578;-79
2022/08/28 05:50:37;;;;;;;7.82;1.73;;;19.40;99.90;;;;;;4992968;28;20046;-79
2022/08/28 05:53:02;;;;;;;4.72;1.67;;;20.30;99.90;;;;;;4984213;28;20066;-78
2022/08/28 05:55:28;;;;;;;4.82;1.35;;;21.30;99.90;;;;;;4984166;28;20066;-79
2022/08/28 05:57:54;;;;;;;5.40;1.77;;;22.20;99.90;;;;;;4980004;28;20049;-79
2022/08/28 06:00:19;;;;;;;4.95;2.03;;;23.00;99.90;;;;;;4985544;28;20074;-79
2022/08/28 06:02:45;;;;;;;5.35;1.90;;;23.60;99.90;;;;;;4983022;28;20034;-78
2022/08/28 06:05:11;;;;;;;4.53;1.48;;;24.20;99.90;;;;;;4984307;28;20049;-77
2022/08/28 06:07:36;;;;;;;5.70;1.80;;;25.00;99.90;;;;;;4981383;28;20039;-80
2022/08/28 06:10:02;;;;;;;4.05;1.42;;;25.80;99.90;;;;;;4983277;28;20092;-80
2022/08/28 06:12:28;;;;;;;10.68;2.42;;;26.50;99.90;;;;;;5013538;28;20038;-76
2022/08/28 06:14:53;;;;;;;3.95;1.70;;;27.40;99.90;;;;;;5010219;28;20690;-78
2022/08/28 06:17:21;;;;;;;8.13;1.40;;;27.80;98.80;;;;;;4980954;28;20586;-80
2022/08/28 06:19:47;;;;;;;5.65;1.60;;;28.40;97.70;;;;;;4979684;28;20118;-80
2022/08/28 06:22:13;;;;;;;4.10;1.60;;;28.50;96.00;;;;;;5014012;28;20310;-80
2022/08/28 06:24:39;;;;;;;8.05;1.88;;;29.30;95.80;;;;;;5011270;28;20117;-80
2022/08/28 06:27:05;;;;;;;3.47;1.48;;;29.40;94.50;;;;;;4980723;28;20103;-79
2022/08/28 06:29:30;;;;;;;3.22;1.30;;;29.80;93.80;;;;;;4995991;28;20074;-80
2022/08/28 06:31:59;;;;;;;5.25;1.42;;;30.10;93.40;;;;;;4984994;28;20407;-78
2022/08/28 06:34:26;;;;;;;7.93;1.73;;;30.50;92.70;;;;;;4981636;28;20030;-79
2022/08/28 06:36:52;;;;;;;4.70;1.42;;;30.20;92.20;;;;;;4986851;28;20892;-80
2022/08/28 06:39:18;;;;;;;26.13;2.65;;;28.80;91.70;;;;;;4983090;28;20070;-80
2022/08/28 06:41:43;;;;;;;5.55;1.30;;;27.00;92.10;;;;;;4985757;28;20051;-80
2022/08/28 06:44:12;;;;;;;6.43;1.75;;;25.80;93.10;;;;;;5009902;28;20046;-78
2022/08/28 06:46:38;;;;;;;6.30;1.50;;;25.80;94.30;;;;;;4987970;28;20092;-78
2022/08/28 06:49:06;;;;;;;4.75;1.88;;;26.70;94.30;;;;;;4983407;28;20492;-80
2022/08/28 06:51:32;;;;;;;4.93;1.20;;;27.80;93.80;;;;;;4982124;28;20065;-79
2022/08/28 06:53:58;;;;;;;5.18;1.65;;;29.10;93.00;;;;;;4980741;28;20053;-81
2022/08/28 06:56:23;;;;;;;6.32;1.35;;;30.00;91.90;;;;;;4983271;28;20042;-79
2022/08/28 06:58:49;;;;;;;3.85;1.15;;;30.00;91.30;;;;;;4979492;28;20047;-79
2022/08/28 07:01:21;;;;;;;3.50;1.52;;;29.80;90.90;;;;;;5014425;28;20046;-77
2022/08/28 07:03:52;;;;;;;5.80;1.83;;;28.90;90.80;;;;;;4983459;28;20104;-77
2022/08/28 07:06:20;;;;;;;6.53;1.63;;;28.10;91.50;;;;;;4980014;28;20093;-78
2022/08/28 07:08:46;;;;;;;7.10;1.50;;;27.60;91.80;;;;;;4981658;28;20655;-79
2022/08/28 07:11:27;;;;;;;5.40;1.42;;;27.20;91.90;;;;;;5013620;28;20551;-79
2022/08/28 07:13:54;;;;;;;6.43;1.58;;;26.70;92.40;;;;;;5010338;28;20038;-79
2022/08/28 07:16:30;;;;;;;6.63;1.20;;;26.40;92.50;;;;;;4979585;28;20093;-78
2022/08/28 07:18:57;;;;;;;4.50;1.40;;;26.20;92.90;;;;;;4980348;28;20057;-78
2022/08/28 07:21:23;;;;;;;5.30;1.25;;;25.90;93.20;;;;;;4984880;28;20050;-79
2022/08/28 07:23:49;;;;;;;5.80;1.92;;;25.50;93.60;;;;;;5008180;28;20042;-80
2022/08/28 07:26:18;;;;;;;6.95;1.65;;;25.20;93.90;;;;;;5010270;28;20056;-79
2022/08/28 07:28:44;;;;;;;5.40;1.27;;;24.90;94.20;;;;;;5010843;28;20050;-78
2022/08/28 07:31:14;;;;;;;4.75;1.00;;;24.70;94.60;;;;;;4978395;28;20511;-78
2022/08/28 07:33:41;;;;;;;4.00;1.13;;;24.40;94.90;;;;;;4981291;28;20505;-80
2022/08/28 07:36:09;;;;;;;8.27;1.58;;;24.30;94.90;;;;;;5005455;28;20213;-76
2022/08/28 07:38:35;;;;;;;3.92;1.17;;;24.10;94.90;;;;;;5008469;28;20049;-78
2022/08/28 07:41:02;;;;;;;4.25;1.40;;;24.00;95.00;;;;;;4979557;28;20058;-78
2022/08/28 07:46:12;;;;;;;4.28;1.02;;;23.80;95.10;;;;;;4983641;28;20057;-77
2022/08/28 07:48:39;;;;;;;6.43;1.38;;;23.80;95.10;;;;;;4983153;28;20046;-78
2022/08/28 07:51:07;;;;;;;5.65;1.48;;;23.70;95.00;;;;;;4979228;28;20038;-79
2022/08/28 07:53:33;;;;;;;5.85;1.15;;;23.70;94.90;;;;;;4981116;28;20325;-79
2022/08/28 07:55:58;;;;;;;6.05;1.10;;;23.70;95.00;;;;;;5000045;28;20045;-80
2022/08/28 07:58:25;;;;;;;7.82;1.08;;;23.80;94.70;;;;;;5011310;28;20050;-80
2022/08/28 08:00:54;;;;;;;7.18;0.82;;;23.70;93.60;;;;;;4983897;28;20479;-79
2022/08/28 08:03:21;;;;;;;4.82;1.20;;;23.50;93.60;;;;;;4983970;28;20096;-79
2022/08/28 08:05:59;;;;;;;2.13;0.75;;;23.60;93.90;;;;;;4980217;28;20043;-79
2022/08/28 08:08:25;;;;;;;6.13;1.35;;;23.70;93.50;;;;;;4972458;28;20047;-80
2022/08/28 08:11:07;;;;;;;4.88;1.00;;;23.80;93.30;;;;;;4979669;28;20050;-80
2022/08/28 08:13:35;;;;;;;2.55;0.98;;;23.90;92.80;;;;;;5011474;28;20407;-79
2022/08/28 08:16:10;;;;;;;3.92;1.00;;;24.00;93.10;;;;;;4963084;28;20035;-79
2022/08/28 08:18:38;;;;;;;2.78;0.98;;;24.30;93.00;;;;;;4968340;28;20051;-79
2022/08/28 08:21:06;;;;;;;10.65;1.58;;;24.50;92.70;;;;;;4966647;28;20058;-79
2022/08/28 08:23:37;;;;;;;6.20;1.25;;;24.50;91.70;;;;;;4962476;28;20043;-79
2022/08/28 08:26:06;;;;;;;6.57;0.80;;;24.50;92.20;;;;;;4962782;28;20057;-79
2022/08/28 08:28:34;;;;;;;3.85;1.00;;;24.50;92.30;;;;;;4963774;28;20047;-79
2022/08/28 08:31:02;;;;;;;3.92;1.00;;;24.40;92.10;;;;;;4963159;28;20046;-79
2022/08/28 08:33:28;;;;;;;5.70;0.90;;;24.20;92.10;;;;;;4964370;28;20065;-78
2022/08/28 08:35:54;;;;;;;7.10;1.20;;;24.10;91.90;;;;;;4966505;28;20504;-78
2022/08/28 08:38:20;;;;;;;8.13;1.23;;;24.00;91.90;;;;;;4966092;28;20043;-79
2022/08/28 08:40:46;;;;;;;4.13;1.10;;;24.10;92.40;;;;;;4965538;28;20058;-79
2022/08/28 08:43:15;;;;;;;3.97;1.13;;;24.30;92.20;;;;;;4968552;28;20047;-78
2022/08/28 08:45:45;;;;;;;8.07;1.55;;;24.30;91.80;;;;;;4969159;28;20070;-78
2022/08/28 08:48:28;;;;;;;6.13;0.95;;;24.50;91.90;;;;;;4964983;28;20062;-76
2022/08/28 08:50:56;;;;;;;5.78;1.20;;;24.70;92.20;;;;;;5000077;28;20039;-76
2022/08/28 08:53:43;;;;;;;7.57;1.23;;;24.60;91.50;;;;;;4972683;28;20055;-76
2022/08/28 08:56:14;;;;;;;2.83;1.13;;;24.40;91.10;;;;;;4966752;28;20669;-79
2022/08/28 08:58:47;;;;;;;4.82;1.60;;;24.10;90.90;;;;;;4964032;28;20121;-77
2022/08/28 09:01:16;;;;;;;1.45;0.88;;;23.80;91.20;;;;;;4968368;28;20202;-79
2022/08/28 09:03:55;;;;;;;3.45;0.88;;;23.60;90.80;;;;;;4969937;28;20075;-78
2022/08/28 09:06:40;;;;;;;6.28;1.30;;;23.60;91.30;;;;;;4969739;28;20050;-79
2022/08/28 09:09:28;;;;;;;5.13;1.08;;;23.80;91.80;;;;;;4965605;28;20081;-79
2022/08/28 09:11:59;;;;;;;5.45;1.35;;;23.80;91.50;;;;;;4968222;28;20105;-79
2022/08/28 09:14:35;;;;;;;4.60;1.60;;;23.60;91.00;;;;;;4966429;28;20047;-79
2022/08/28 09:17:01;;;;;;;7.30;1.45;;;23.90;91.20;;;;;;4964654;28;20051;-76
2022/08/28 09:19:27;;;;;;;6.40;1.30;;;23.30;91.50;;;;;;4964571;28;20050;-78
2022/08/28 09:21:52;;;;;;;5.65;1.30;;;23.20;91.60;;;;;;4966137;28;20046;-78
2022/08/28 09:24:24;;;;;;;3.75;1.00;;;23.20;91.90;;;;;;4971957;28;20105;-79
2022/08/28 09:26:57;;;;;;;3.97;1.58;;;23.20;92.20;;;;;;4965263;28;20143;-79
2022/08/28 09:29:35;;;;;;;4.95;1.10;;;23.40;92.90;;;;;;4995622;28;20427;-79
2022/08/28 09:32:42;;;;;;;6.72;1.33;;;23.80;92.90;;;;;;4968150;28;20062;-79
2022/08/28 09:35:17;;;;;;;3.08;1.00;;;24.00;91.90;;;;;;4968508;28;20050;-78
2022/08/28 09:37:43;;;;;;;3.85;1.15;;;24.30;92.00;;;;;;4964140;28;20051;-78
2022/08/28 09:40:22;;;;;;;4.40;1.10;;;24.50;91.40;;;;;;4963987;28;20058;-79
2022/08/28 09:45:57;;;;;;;4.78;0.88;;;25.00;91.20;;;;;;4961782;28;20844;-76
2022/08/28 09:48:44;;;;;;;4.38;1.10;;;25.00;90.40;;;;;;4997768;28;20061;-79
2022/08/28 09:51:27;;;;;;;5.65;1.15;;;24.90;90.70;;;;;;4969861;28;20039;-78
2022/08/28 09:53:55;;;;;;;5.43;1.00;;;25.10;90.40;;;;;;4962207;28;20042;-79
2022/08/28 09:56:35;;;;;;;7.80;1.40;;;25.00;90.10;;;;;;4962453;28;20058;-78
2022/08/28 09:59:10;;;;;;;4.22;1.10;;;25.00;90.20;;;;;;4967752;28;20097;-78
2022/08/28 10:02:00;;;;;;;3.55;1.33;;;25.10;89.90;;;;;;5003738;28;20086;-79
2022/08/28 10:04:44;;;;;;;4.18;1.00;;;25.10;90.70;;;;;;4964492;28;20047;-79
2022/08/28 10:07:22;;;;;;;5.03;1.30;;;25.00;90.00;;;;;;4973530;28;20086;-76
2022/08/28 10:10:34;;;;;;;5.25;1.10;;;24.60;89.30;;;;;;4964804;28;20047;-79
2022/08/28 10:13:08;;;;;;;3.92;1.30;;;24.20;89.90;;;;;;4963072;28;20046;-79
2022/08/28 10:15:40;;;;;;;9.07;1.40;;;23.70;90.20;;;;;;4967547;28;20100;-79
2022/08/28 10:18:16;;;;;;;4.38;1.13;;;23.90;90.80;;;;;;4966557;28;20054;-79
2022/08/28 10:21:06;;;;;;;5.10;1.42;;;24.10;90.70;;;;;;4972888;28;20514;-79
2022/08/28 10:24:10;;;;;;;3.75;1.33;;;24.40;91.00;;;;;;4962780;28;20043;-79
2022/08/28 10:26:50;;;;;;;5.13;1.52;;;24.50;90.20;;;;;;4965024;28;20130;-79
2022/08/28 10:29:27;;;;;;;3.75;1.30;;;24.60;90.30;;;;;;4965413;28;20062;-78
2022/08/28 10:32:13;;;;;;;5.70;1.70;;;24.50;90.00;;;;;;4998239;28;20050;-78
2022/08/28 10:34:53;;;;;;;3.58;0.90;;;24.30;90.20;;;;;;4963464;28;20038;-77
2022/08/28 10:37:24;;;;;;;3.50;1.23;;;24.30;89.60;;;;;;4964048;28;20045;-79
2022/08/28 10:39:54;;;;;;;4.05;0.98;;;24.60;90.00;;;;;;4997303;28;20043;-79
2022/08/28 10:42:35;;;;;;;3.13;0.80;;;24.60;89.00;;;;;;4965815;28;20051;-78
2022/08/28 10:45:13;;;;;;;3.63;1.17;;;24.50;89.10;;;;;;4965849;28;20132;-79
2022/08/28 10:47:44;;;;;;;4.65;1.17;;;24.30;89.10;;;;;;4980142;28;20074;-79
2022/08/28 10:50:25;;;;;;;4.93;1.10;;;24.10;89.90;;;;;;4965820;28;20066;-79
2022/08/28 10:53:06;;;;;;;3.88;1.40;;;23.90;90.10;;;;;;4962810;28;20042;-79
2022/08/28 10:55:58;;;;;;;3.58;1.23;;;23.70;90.40;;;;;;4995870;28;20574;-79
2022/08/28 10:58:26;;;;;;;5.80;0.93;;;23.50;90.10;;;;;;4994207;28;20057;-79
2022/08/28 11:01:00;;;;;;;5.03;1.13;;;23.20;90.50;;;;;;4963652;28;20074;-79
2022/08/28 11:03:27;;;;;;;5.43;1.90;;;23.10;90.80;;;;;;4965787;28;20785;-79
2022/08/28 11:06:00;;;;;;;5.85;1.38;;;23.20;91.70;;;;;;4965138;28;20559;-77
2022/08/28 11:08:32;;;;;;;6.07;1.13;;;23.30;91.40;;;;;;4962570;28;20077;-79
2022/08/28 11:11:00;;;;;;;4.05;1.45;;;23.10;90.80;;;;;;4961084;28;20027;-79
2022/08/28 11:13:48;;;;;;;5.45;1.40;;;22.90;91.10;;;;;;4965141;28;20035;-79
2022/08/28 11:16:18;;;;;;;4.45;1.63;;;22.80;91.30;;;;;;4998482;28;20086;-74
2022/08/28 11:18:47;;;;;;;6.10;1.58;;;22.60;91.50;;;;;;4996602;28;20055;-79
2022/08/28 11:21:25;;;;;;;9.95;1.77;;;22.50;91.10;;;;;;4961609;28;20077;-78
2022/08/28 11:24:33;;;;;;;9.43;1.55;;;22.60;91.80;;;;;;4964185;28;20496;-76
2022/08/28 11:27:17;;;;;;;3.78;1.58;;;22.70;92.30;;;;;;4951835;28;20069;-79
2022/08/28 11:30:24;;;;;;;6.57;1.63;;;23.00;91.60;;;;;;4995950;28;20039;-79
2022/08/28 11:32:49;;;;;;;;;;;23.30;92.10;;;;;;4947495;28;20043;-78
2022/08/28 11:35:42;;;;;;;2.92;0.90;;;23.80;91.60;;;;;;4967020;28;19928;-79
2022/08/28 11:38:07;;;;;;;3.13;0.85;;;23.90;90.60;;;;;;4964310;28;20066;-79
2022/08/28 11:40:33;;;;;;;2.58;0.93;;;23.80;90.00;;;;;;4963594;28;20566;-78
2022/08/28 11:43:12;;;;;;;4.30;1.50;;;23.50;89.40;;;;;;4994383;28;20537;-79
2022/08/28 11:45:41;;;;;;;5.82;1.42;;;23.20;88.80;;;;;;4998612;28;20118;-79
2022/08/28 11:48:07;;;;;;;4.13;1.15;;;22.90;89.70;;;;;;4963514;28;20043;-78
2022/08/28 11:50:52;;;;;;;3.60;1.00;;;22.70;90.30;;;;;;4964478;28;20053;-79
2022/08/28 11:53:27;;;;;;;3.10;1.10;;;22.60;91.10;;;;;;4960070;28;20090;-78
2022/08/28 11:56:01;;;;;;;6.40;1.38;;;22.90;91.00;;;;;;4963276;28;20050;-79
2022/08/28 11:58:49;;;;;;;3.60;1.63;;;23.00;90.50;;;;;;4965129;28;20051;-77
2022/08/28 12:01:29;;;;;;;2.25;1.10;;;23.10;90.40;;;;;;4996128;28;20051;-78
2022/08/28 12:04:17;;;;;;;2.90;1.00;;;23.20;90.70;;;;;;4959116;28;20167;-76
2022/08/28 12:06:47;;;;;;;2.92;0.95;;;23.10;89.60;;;;;;4961270;28;20043;-79
2022/08/28 12:09:24;;;;;;;4.13;1.45;;;22.90;89.50;;;;;;4962101;28;20410;-79
2022/08/28 12:11:53;;;;;;;4.35;1.52;;;22.80;90.10;;;;;;4997929;28;20487;-78
2022/08/28 12:14:25;;;;;;;4.05;1.00;;;22.90;90.10;;;;;;4971621;28;20031;-77
2022/08/28 12:17:00;;;;;;;3.72;1.05;;;23.10;89.30;;;;;;4986327;28;20039;-79
2022/08/28 12:19:35;;;;;;;3.80;1.08;;;23.30;89.70;;;;;;4999509;28;20054;-79
2022/08/28 12:22:22;;;;;;;8.25;1.52;;;23.50;90.10;;;;;;4966780;28;20471;-79
2022/08/28 12:24:57;;;;;;;5.65;1.60;;;23.80;90.10;;;;;;4972507;28;20106;-78
2022/08/28 12:27:24;;;;;;;3.75;1.23;;;23.90;88.10;;;;;;4998118;28;20631;-78
2022/08/28 12:29:54;;;;;;;5.38;1.20;;;23.70;87.90;;;;;;4974443;28;20049;-79
2022/08/28 12:32:38;;;;;;;4.05;1.20;;;23.50;88.40;;;;;;4974592;28;20066;-78
2022/08/28 12:35:07;;;;;;;5.45;1.13;;;23.60;89.50;;;;;;4971568;28;20051;-79
2022/08/28 12:37:52;;;;;;;3.38;1.02;;;23.60;89.60;;;;;;4967044;28;20039;-79
2022/08/28 12:40:28;;;;;;;3.03;1.30;;;23.60;88.30;;;;;;4968754;28;20679;-79
2022/08/28 12:43:01;;;;;;;2.75;1.13;;;23.40;87.50;;;;;;4968157;28;20039;-79
2022/08/28 12:45:47;;;;;;;2.40;1.30;;;23.20;88.60;;;;;;5001159;28;20061;-78
2022/08/28 12:48:26;;;;;;;3.17;0.88;;;23.00;89.40;;;;;;4967791;28;20035;-77
2022/08/28 12:51:10;;;;;;;4.03;1.20;;;22.90;90.00;;;;;;4972362;28;20069;-78
2022/08/28 12:53:42;;;;;;;4.07;1.30;;;22.90;90.40;;;;;;4967181;28;20038;-78
2022/08/28 12:56:10;;;;;;;1.63;0.73;;;23.20;90.80;;;;;;4970594;28;20031;-79
2022/08/28 12:58:38;;;;;;;5.78;1.25;;;23.40;90.30;;;;;;4977589;28;20046;-78
2022/08/28 13:01:11;;;;;;;2.40;1.02;;;23.60;90.10;;;;;;4968802;28;20042;-79
2022/08/28 13:03:48;;;;;;;7.93;1.50;;;23.70;89.60;;;;;;4973137;28;20051;-78
2022/08/28 13:06:22;;;;;;;2.78;0.80;;;23.80;89.00;;;;;;4970042;28;20471;-79
2022/08/28 13:08:48;;;;;;;3.00;1.20;;;24.00;89.70;;;;;;4967781;28;20035;-75